sensor_id;sensor_type;location;lat;lon;timestamp;pressure;altitude;pressure_sealevel;temperature;humidity
24230;BME280;12362;50.004;8.006;2022-09-12T00:01:19;100710.59;;;13.41;100.00
24230;BME280;12362;50.004;8.006;2022-09-12T00:03:46;100717.00;;;13.35;100.00
24230;BME280;12362;50.004;8.006;2022-09-12T00:06:17;100708.59;;;13.30;100.00
24230;BME280;12362;50.004;8.006;2022-09-12T00:08:44;100705.38;;;13.25;100.00
24230;BME280;12362;50.004;8.006;2022-09-12T00:11:11;100705.63;;;13.21;100.00
24230;BME280;12362;50.004;8.006;2022-09-12T00:13:39;100710.09;;;13.19;100.00
24230;BME280;12362;50.004;8.006;2022-09-12T00:16:14;100700.69;;;13.16;100.00
24230;BME280;12362;50.004;8.006;2022-09-12T00:18:43;100706.72;;;13.17;100.00
24230;BME280;12362;50.004;8.006;2022-09-12T00:21:14;100707.75;;;13.30;100.00
24230;BME280;12362;50.004;8.006;2022-09-12T00:23:43;100701.25;;;13.21;100.00
24230;BME280;12362;50.004;8.006;2022-09-12T00:26:09;100697.22;;;13.16;100.00
24230;BME280;12362;50.004;8.006;2022-09-12T00:28:36;100697.06;;;13.19;100.00
24230;BME280;12362;50.004;8.006;2022-09-12T00:31:06;100696.91;;;13.22;100.00
24230;BME280;12362;50.004;8.006;2022-09-12T00:33:33;100697.81;;;13.21;100.00
24230;BME280;12362;50.004;8.006;2022-09-12T00:36:04;100699.25;;;13.26;100.00
24230;BME280;12362;50.004;8.006;2022-09-12T00:38:34;100690.66;;;13.24;100.00
24230;BME280;12362;50.004;8.006;2022-09-12T00:41:05;100693.53;;;13.20;100.00
24230;BME280;12362;50.004;8.006;2022-09-12T00:43:41;100692.25;;;13.11;100.00
24230;BME280;12362;50.004;8.006;2022-09-12T00:49:24;100686.19;;;12.95;100.00
24230;BME280;12362;50.004;8.006;2022-09-12T00:51:55;100683.00;;;13.06;100.00
24230;BME280;12362;50.004;8.006;2022-09-12T00:54:27;100692.16;;;12.97;100.00
24230;BME280;12362;50.004;8.006;2022-09-12T00:57:00;100682.44;;;13.01;100.00
24230;BME280;12362;50.004;8.006;2022-09-12T00:59:35;100680.75;;;13.00;100.00
24230;BME280;12362;50.004;8.006;2022-09-12T01:02:07;100680.50;;;13.04;100.00
24230;BME280;12362;50.004;8.006;2022-09-12T01:04:36;100679.63;;;13.04;100.00
24230;BME280;12362;50.004;8.006;2022-09-12T01:07:05;100682.84;;;12.93;100.00
24230;BME280;12362;50.004;8.006;2022-09-12T01:09:34;100684.03;;;12.86;100.00
24230;BME280;12362;50.004;8.006;2022-09-12T01:12:03;100683.44;;;12.81;100.00
24230;BME280;12362;50.004;8.006;2022-09-12T01:14:31;100682.53;;;12.82;100.00
24230;BME280;12362;50.004;8.006;2022-09-12T01:17:00;100682.53;;;12.82;100.00
24230;BME280;12362;50.004;8.006;2022-09-12T01:19:39;100674.78;;;12.81;100.00
24230;BME280;12362;50.004;8.006;2022-09-12T01:22:44;100677.63;;;12.76;100.00
24230;BME280;12362;50.004;8.006;2022-09-12T01:31:42;100671.47;;;12.62;100.00
24230;BME280;12362;50.004;8.006;2022-09-12T01:34:39;100671.78;;;12.56;100.00
24230;BME280;12362;50.004;8.006;2022-09-12T01:40:20;100672.88;;;12.52;100.00
24230;BME280;12362;50.004;8.006;2022-09-12T01:42:56;100668.66;;;12.50;100.00
24230;BME280;12362;50.004;8.006;2022-09-12T01:45:39;100667.16;;;12.46;100.00
24230;BME280;12362;50.004;8.006;2022-09-12T01:48:32;100668.47;;;12.37;100.00
24230;BME280;12362;50.004;8.006;2022-09-12T01:54:03;100668.56;;;12.36;100.00
24230;BME280;12362;50.004;8.006;2022-09-12T01:56:34;100670.25;;;12.37;100.00
24230;BME280;12362;50.004;8.006;2022-09-12T01:59:20;100668.47;;;12.37;100.00
24230;BME280;12362;50.004;8.006;2022-09-12T02:02:04;100663.09;;;12.40;100.00
24230;BME280;12362;50.004;8.006;2022-09-12T02:04:46;100661.47;;;12.38;100.00
24230;BME280;12362;50.004;8.006;2022-09-12T02:07:21;100655.28;;;12.40;100.00
24230;BME280;12362;50.004;8.006;2022-09-12T02:10:11;100658.03;;;12.37;100.00
24230;BME280;12362;50.004;8.006;2022-09-12T02:12:47;100653.22;;;12.30;100.00
24230;BME280;12362;50.004;8.006;2022-09-12T02:15:17;100662.09;;;12.26;100.00
24230;BME280;12362;50.004;8.006;2022-09-12T02:17:48;100656.75;;;12.29;100.00
24230;BME280;12362;50.004;8.006;2022-09-12T02:20:22;100649.84;;;12.28;100.00
24230;BME280;12362;50.004;8.006;2022-09-12T02:22:51;100654.25;;;12.27;100.00
24230;BME280;12362;50.004;8.006;2022-09-12T02:25:21;100652.41;;;12.29;100.00
24230;BME280;12362;50.004;8.006;2022-09-12T02:27:59;100656.25;;;12.38;100.00
24230;BME280;12362;50.004;8.006;2022-09-12T02:31:11;100646.09;;;12.33;100.00
24230;BME280;12362;50.004;8.006;2022-09-12T02:33:59;100647.72;;;12.19;100.00
24230;BME280;12362;50.004;8.006;2022-09-12T02:36:41;100641.16;;;12.12;100.00
24230;BME280;12362;50.004;8.006;2022-09-12T02:39:11;100642.03;;;12.28;100.00
24230;BME280;12362;50.004;8.006;2022-09-12T02:41:36;100641.47;;;12.23;100.00
24230;BME280;12362;50.004;8.006;2022-09-12T02:44:03;100641.00;;;12.15;100.00
24230;BME280;12362;50.004;8.006;2022-09-12T02:46:40;100642.47;;;12.03;100.00
24230;BME280;12362;50.004;8.006;2022-09-12T02:49:07;100646.38;;;11.95;100.00
24230;BME280;12362;50.004;8.006;2022-09-12T02:51:33;100649.88;;;11.94;100.00
24230;BME280;12362;50.004;8.006;2022-09-12T02:54:00;100651.09;;;12.04;100.00
24230;BME280;12362;50.004;8.006;2022-09-12T02:56:29;100649.66;;;11.98;100.00
24230;BME280;12362;50.004;8.006;2022-09-12T02:59:02;100652.63;;;11.91;100.00
24230;BME280;12362;50.004;8.006;2022-09-12T03:01:54;100651.91;;;11.89;100.00
24230;BME280;12362;50.004;8.006;2022-09-12T03:13:36;100642.31;;;11.89;100.00
24230;BME280;12362;50.004;8.006;2022-09-12T03:16:29;100645.78;;;11.90;100.00
24230;BME280;12362;50.004;8.006;2022-09-12T03:22:01;100642.00;;;11.78;100.00
24230;BME280;12362;50.004;8.006;2022-09-12T03:24:34;100641.56;;;11.71;100.00
24230;BME280;12362;50.004;8.006;2022-09-12T03:27:17;100643.97;;;11.74;100.00
24230;BME280;12362;50.004;8.006;2022-09-12T03:29:50;100642.31;;;11.73;100.00
24230;BME280;12362;50.004;8.006;2022-09-12T03:32:17;100644.47;;;11.81;100.00
24230;BME280;12362;50.004;8.006;2022-09-12T03:34:43;100644.16;;;11.87;100.00
24230;BME280;12362;50.004;8.006;2022-09-12T03:37:12;100636.72;;;11.80;100.00
24230;BME280;12362;50.004;8.006;2022-09-12T03:39:41;100641.09;;;11.79;100.00
24230;BME280;12362;50.004;8.006;2022-09-12T03:42:08;100649.81;;;11.78;100.00
24230;BME280;12362;50.004;8.006;2022-09-12T03:44:38;100648.28;;;11.75;100.00
24230;BME280;12362;50.004;8.006;2022-09-12T03:47:08;100642.53;;;11.68;100.00
24230;BME280;12362;50.004;8.006;2022-09-12T03:49:36;100645.22;;;11.67;100.00
24230;BME280;12362;50.004;8.006;2022-09-12T03:52:04;100651.88;;;11.72;100.00
24230;BME280;12362;50.004;8.006;2022-09-12T03:54:30;100650.34;;;11.68;100.00
24230;BME280;12362;50.004;8.006;2022-09-12T03:56:55;100643.25;;;11.72;100.00
24230;BME280;12362;50.004;8.006;2022-09-12T03:59:25;100649.19;;;11.74;100.00
24230;BME280;12362;50.004;8.006;2022-09-12T04:01:52;100645.22;;;11.67;100.00
24230;BME280;12362;50.004;8.006;2022-09-12T04:04:18;100641.81;;;11.48;100.00
24230;BME280;12362;50.004;8.006;2022-09-12T04:06:46;100646.59;;;11.57;100.00
24230;BME280;12362;50.004;8.006;2022-09-12T04:09:11;100647.50;;;11.56;100.00
24230;BME280;12362;50.004;8.006;2022-09-12T04:11:38;100647.00;;;11.48;100.00
24230;BME280;12362;50.004;8.006;2022-09-12T04:14:05;100639.78;;;11.54;100.00
24230;BME280;12362;50.004;8.006;2022-09-12T04:16:31;100648.50;;;11.53;100.00
24230;BME280;12362;50.004;8.006;2022-09-12T04:18:57;100642.06;;;11.60;100.00
24230;BME280;12362;50.004;8.006;2022-09-12T04:21:25;100647.59;;;11.54;100.00
24230;BME280;12362;50.004;8.006;2022-09-12T04:23:53;100651.03;;;11.36;100.00
24230;BME280;12362;50.004;8.006;2022-09-12T04:26:24;100646.97;;;11.31;100.00
24230;BME280;12362;50.004;8.006;2022-09-12T04:28:52;100654.00;;;11.29;100.00
24230;BME280;12362;50.004;8.006;2022-09-12T04:31:23;100653.06;;;11.30;100.00
24230;BME280;12362;50.004;8.006;2022-09-12T04:33:57;100648.53;;;11.52;100.00
24230;BME280;12362;50.004;8.006;2022-09-12T04:36:24;100651.34;;;11.66;100.00
24230;BME280;12362;50.004;8.006;2022-09-12T04:38:50;100649.09;;;11.58;100.00
24230;BME280;12362;50.004;8.006;2022-09-12T04:41:21;100652.34;;;11.45;100.00
24230;BME280;12362;50.004;8.006;2022-09-12T04:43:53;100655.41;;;11.36;100.00
24230;BME280;12362;50.004;8.006;2022-09-12T04:46:22;100654.63;;;11.34;100.00
24230;BME280;12362;50.004;8.006;2022-09-12T04:48:50;100647.66;;;11.34;100.00
24230;BME280;12362;50.004;8.006;2022-09-12T04:51:24;100651.94;;;11.35;100.00
24230;BME280;12362;50.004;8.006;2022-09-12T04:53:55;100649.69;;;11.28;100.00
24230;BME280;12362;50.004;8.006;2022-09-12T04:56:26;100655.13;;;11.23;100.00
24230;BME280;12362;50.004;8.006;2022-09-12T04:58:53;100656.13;;;11.21;100.00
24230;BME280;12362;50.004;8.006;2022-09-12T05:01:20;100654.56;;;11.17;100.00
24230;BME280;12362;50.004;8.006;2022-09-12T05:03:48;100653.38;;;11.24;100.00
24230;BME280;12362;50.004;8.006;2022-09-12T05:06:19;100653.00;;;11.31;100.00
24230;BME280;12362;50.004;8.006;2022-09-12T05:08:46;100652.38;;;11.26;100.00
24230;BME280;12362;50.004;8.006;2022-09-12T05:11:15;100654.75;;;11.31;100.00
24230;BME280;12362;50.004;8.006;2022-09-12T05:13:43;100654.63;;;11.34;100.00
24230;BME280;12362;50.004;8.006;2022-09-12T05:16:17;100651.13;;;11.35;100.00
24230;BME280;12362;50.004;8.006;2022-09-12T05:18:44;100656.88;;;11.41;100.00
24230;BME280;12362;50.004;8.006;2022-09-12T05:21:17;100652.22;;;11.48;100.00
24230;BME280;12362;50.004;8.006;2022-09-12T05:23:44;100653.84;;;11.67;100.00
24230;BME280;12362;50.004;8.006;2022-09-12T05:26:12;100656.03;;;11.76;100.00
24230;BME280;12362;50.004;8.006;2022-09-12T05:28:41;100654.09;;;11.79;100.00
24230;BME280;12362;50.004;8.006;2022-09-12T05:31:11;100652.72;;;11.89;100.00
24230;BME280;12362;50.004;8.006;2022-09-12T05:33:42;100651.34;;;11.99;100.00
24230;BME280;12362;50.004;8.006;2022-09-12T05:36:13;100647.81;;;12.17;100.00
24230;BME280;12362;50.004;8.006;2022-09-12T05:38:39;100643.50;;;12.33;100.00
24230;BME280;12362;50.004;8.006;2022-09-12T05:41:10;100636.31;;;12.54;100.00
24230;BME280;12362;50.004;8.006;2022-09-12T05:43:39;100626.00;;;12.68;100.00
24230;BME280;12362;50.004;8.006;2022-09-12T05:46:13;100628.56;;;12.84;100.00
24230;BME280;12362;50.004;8.006;2022-09-12T05:48:40;100641.28;;;13.06;100.00
24230;BME280;12362;50.004;8.006;2022-09-12T05:51:09;100635.84;;;13.26;100.00
24230;BME280;12362;50.004;8.006;2022-09-12T05:53:37;100638.31;;;13.43;100.00
24230;BME280;12362;50.004;8.006;2022-09-12T05:56:07;100637.53;;;13.56;100.00
24230;BME280;12362;50.004;8.006;2022-09-12T05:58:36;100634.03;;;13.71;100.00
24230;BME280;12362;50.004;8.006;2022-09-12T06:01:13;100636.06;;;13.81;100.00
24230;BME280;12362;50.004;8.006;2022-09-12T06:03:51;100623.09;;;13.94;100.00
24230;BME280;12362;50.004;8.006;2022-09-12T06:06:22;100629.28;;;14.07;100.00
24230;BME280;12362;50.004;8.006;2022-09-12T06:08:50;100621.78;;;14.16;100.00
24230;BME280;12362;50.004;8.006;2022-09-12T06:11:19;100623.69;;;14.28;100.00
24230;BME280;12362;50.004;8.006;2022-09-12T06:13:47;100623.75;;;14.41;100.00
24230;BME280;12362;50.004;8.006;2022-09-12T06:16:21;100626.19;;;14.44;100.00
24230;BME280;12362;50.004;8.006;2022-09-12T06:18:50;100629.38;;;14.49;100.00
24230;BME280;12362;50.004;8.006;2022-09-12T06:21:17;100632.63;;;14.66;100.00
24230;BME280;12362;50.004;8.006;2022-09-12T06:23:43;100629.28;;;14.78;100.00
24230;BME280;12362;50.004;8.006;2022-09-12T06:26:11;100624.09;;;14.90;100.00
24230;BME280;12362;50.004;8.006;2022-09-12T06:28:39;100622.53;;;14.88;100.00
24230;BME280;12362;50.004;8.006;2022-09-12T06:31:10;100636.66;;;14.85;100.00
24230;BME280;12362;50.004;8.006;2022-09-12T06:33:39;100630.44;;;14.86;100.00
24230;BME280;12362;50.004;8.006;2022-09-12T06:36:09;100632.41;;;14.83;100.00
24230;BME280;12362;50.004;8.006;2022-09-12T06:38:35;100633.47;;;14.80;100.00
24230;BME280;12362;50.004;8.006;2022-09-12T06:41:08;100634.56;;;14.76;100.00
24230;BME280;12362;50.004;8.006;2022-09-12T06:43:37;100640.47;;;14.80;100.00
24230;BME280;12362;50.004;8.006;2022-09-12T06:46:04;100625.16;;;14.88;100.00
24230;BME280;12362;50.004;8.006;2022-09-12T06:48:32;100624.97;;;14.91;100.00
24230;BME280;12362;50.004;8.006;2022-09-12T06:51:01;100629.16;;;14.79;100.00
24230;BME280;12362;50.004;8.006;2022-09-12T06:53:28;100628.22;;;14.80;100.00
24230;BME280;12362;50.004;8.006;2022-09-12T06:58:29;100618.84;;;15.04;100.00
24230;BME280;12362;50.004;8.006;2022-09-12T07:01:39;100624.72;;;15.08;100.00
24230;BME280;12362;50.004;8.006;2022-09-12T07:04:00;100620.78;;;15.15;100.00
24230;BME280;12362;50.004;8.006;2022-09-12T07:06:29;100624.53;;;15.25;100.00
24230;BME280;12362;50.004;8.006;2022-09-12T07:09:00;100620.50;;;15.19;100.00
24230;BME280;12362;50.004;8.006;2022-09-12T07:11:29;100626.34;;;15.37;100.00
24230;BME280;12362;50.004;8.006;2022-09-12T07:14:03;100636.38;;;15.56;100.00
24230;BME280;12362;50.004;8.006;2022-09-12T07:16:30;100638.72;;;15.47;100.00
24230;BME280;12362;50.004;8.006;2022-09-12T07:18:59;100627.91;;;15.65;100.00
24230;BME280;12362;50.004;8.006;2022-09-12T07:21:26;100630.13;;;15.71;100.00
24230;BME280;12362;50.004;8.006;2022-09-12T07:23:52;100624.56;;;16.15;100.00
24230;BME280;12362;50.004;8.006;2022-09-12T07:26:27;100623.47;;;16.79;100.00
24230;BME280;12362;50.004;8.006;2022-09-12T07:28:54;100619.25;;;17.25;100.00
24230;BME280;12362;50.004;8.006;2022-09-12T07:31:23;100615.94;;;17.70;100.00
24230;BME280;12362;50.004;8.006;2022-09-12T07:33:53;100617.28;;;18.31;100.00
24230;BME280;12362;50.004;8.006;2022-09-12T07:36:22;100612.88;;;18.65;100.00
24230;BME280;12362;50.004;8.006;2022-09-12T07:38:57;100622.69;;;18.52;100.00
24230;BME280;12362;50.004;8.006;2022-09-12T07:41:27;100614.75;;;18.19;100.00
24230;BME280;12362;50.004;8.006;2022-09-12T07:43:58;100612.44;;;18.04;100.00
24230;BME280;12362;50.004;8.006;2022-09-12T07:46:25;100602.00;;;18.36;100.00
24230;BME280;12362;50.004;8.006;2022-09-12T07:48:52;100593.84;;;18.94;100.00
24230;BME280;12362;50.004;8.006;2022-09-12T07:51:20;100591.16;;;19.27;100.00
24230;BME280;12362;50.004;8.006;2022-09-12T07:53:49;100591.50;;;19.65;100.00
24230;BME280;12362;50.004;8.006;2022-09-12T07:56:17;100598.47;;;20.27;100.00
24230;BME280;12362;50.004;8.006;2022-09-12T07:58:45;100592.28;;;20.37;100.00
24230;BME280;12362;50.004;8.006;2022-09-12T08:01:19;100607.44;;;20.75;100.00
24230;BME280;12362;50.004;8.006;2022-09-12T08:03:47;100599.63;;;20.94;100.00
24230;BME280;12362;50.004;8.006;2022-09-12T08:06:16;100591.84;;;21.02;100.00
24230;BME280;12362;50.004;8.006;2022-09-12T08:08:47;100595.09;;;21.24;100.00
24230;BME280;12362;50.004;8.006;2022-09-12T08:11:18;100589.09;;;21.12;100.00
24230;BME280;12362;50.004;8.006;2022-09-12T08:13:44;100592.91;;;21.67;100.00
24230;BME280;12362;50.004;8.006;2022-09-12T08:16:17;100596.59;;;21.17;100.00
24230;BME280;12362;50.004;8.006;2022-09-12T08:18:44;100595.13;;;21.52;100.00
24230;BME280;12362;50.004;8.006;2022-09-12T08:21:17;100600.97;;;21.84;100.00
24230;BME280;12362;50.004;8.006;2022-09-12T08:23:44;100589.97;;;22.07;100.00
24230;BME280;12362;50.004;8.006;2022-09-12T08:26:11;100592.59;;;22.07;100.00
24230;BME280;12362;50.004;8.006;2022-09-12T08:28:42;100591.72;;;22.26;100.00
24230;BME280;12362;50.004;8.006;2022-09-12T08:31:11;100583.06;;;22.79;100.00
24230;BME280;12362;50.004;8.006;2022-09-12T08:33:40;100593.34;;;22.55;100.00
24230;BME280;12362;50.004;8.006;2022-09-12T08:36:14;100589.75;;;22.37;100.00
24230;BME280;12362;50.004;8.006;2022-09-12T08:38:43;100600.81;;;22.14;100.00
24230;BME280;12362;50.004;8.006;2022-09-12T08:49:03;100593.84;;;23.39;100.00
24230;BME280;12362;50.004;8.006;2022-09-12T08:51:35;100586.94;;;23.46;100.00
24230;BME280;12362;50.004;8.006;2022-09-12T08:54:17;100580.44;;;23.76;100.00
24230;BME280;12362;50.004;8.006;2022-09-12T08:56:46;100577.53;;;23.69;100.00
24230;BME280;12362;50.004;8.006;2022-09-12T08:59:14;100574.53;;;23.82;100.00
24230;BME280;12362;50.004;8.006;2022-09-12T09:01:42;100578.13;;;24.23;100.00
24230;BME280;12362;50.004;8.006;2022-09-12T09:07:27;100573.38;;;23.67;100.00
24230;BME280;12362;50.004;8.006;2022-09-12T09:15:32;100569.69;;;24.28;100.00
24230;BME280;12362;50.004;8.006;2022-09-12T09:18:23;100568.44;;;24.65;100.00
24230;BME280;12362;50.004;8.006;2022-09-12T09:21:07;100575.06;;;24.61;100.00
24230;BME280;12362;50.004;8.006;2022-09-12T09:23:41;100567.84;;;24.79;100.00
24230;BME280;12362;50.004;8.006;2022-09-12T09:26:16;100567.34;;;23.99;100.00
24230;BME280;12362;50.004;8.006;2022-09-12T09:28:51;100567.59;;;23.71;100.00
24230;BME280;12362;50.004;8.006;2022-09-12T09:31:24;100569.09;;;24.34;100.00
24230;BME280;12362;50.004;8.006;2022-09-12T09:33:51;100564.03;;;24.82;100.00
24230;BME280;12362;50.004;8.006;2022-09-12T09:36:41;100556.53;;;25.26;100.00
24230;BME280;12362;50.004;8.006;2022-09-12T09:39:26;100550.44;;;24.92;100.00
24230;BME280;12362;50.004;8.006;2022-09-12T09:44:48;100543.56;;;25.23;100.00
24230;BME280;12362;50.004;8.006;2022-09-12T09:47:17;100544.59;;;25.22;100.00
24230;BME280;12362;50.004;8.006;2022-09-12T09:49:44;100542.97;;;25.77;100.00
24230;BME280;12362;50.004;8.006;2022-09-12T09:52:13;100543.59;;;25.95;100.00
24230;BME280;12362;50.004;8.006;2022-09-12T09:54:51;100536.00;;;26.38;100.00
24230;BME280;12362;50.004;8.006;2022-09-12T10:03:20;100520.63;;;27.25;100.00
24230;BME280;12362;50.004;8.006;2022-09-12T10:05:59;100519.91;;;26.78;97.74
24230;BME280;12362;50.004;8.006;2022-09-12T10:08:32;100516.03;;;26.80;100.00
24230;BME280;12362;50.004;8.006;2022-09-12T10:13:53;100519.97;;;25.76;100.00
24230;BME280;12362;50.004;8.006;2022-09-12T10:16:34;100514.34;;;26.49;100.00
24230;BME280;12362;50.004;8.006;2022-09-12T10:19:24;100502.91;;;27.32;97.07
24230;BME280;12362;50.004;8.006;2022-09-12T10:22:02;100496.19;;;27.58;99.09
24230;BME280;12362;50.004;8.006;2022-09-12T10:24:40;100487.25;;;27.88;92.46
24230;BME280;12362;50.004;8.006;2022-09-12T10:27:15;100485.72;;;28.37;86.02
24230;BME280;12362;50.004;8.006;2022-09-12T10:29:59;100486.00;;;28.42;86.39
24230;BME280;12362;50.004;8.006;2022-09-12T10:32:33;100483.59;;;28.32;88.87
24230;BME280;12362;50.004;8.006;2022-09-12T10:35:06;100482.38;;;28.63;97.13
24230;BME280;12362;50.004;8.006;2022-09-12T10:37:36;100483.56;;;28.61;94.25
24230;BME280;12362;50.004;8.006;2022-09-12T10:40:20;100478.75;;;29.06;91.63
24230;BME280;12362;50.004;8.006;2022-09-12T10:42:51;100481.88;;;28.89;77.36
24230;BME280;12362;50.004;8.006;2022-09-12T10:45:29;100484.97;;;27.63;87.21
24230;BME280;12362;50.004;8.006;2022-09-12T10:47:58;100475.28;;;28.56;83.06
24230;BME280;12362;50.004;8.006;2022-09-12T10:50:30;100473.66;;;28.76;82.47
24230;BME280;12362;50.004;8.006;2022-09-12T10:53:24;100464.22;;;29.15;77.04
24230;BME280;12362;50.004;8.006;2022-09-12T10:56:04;100459.53;;;29.38;79.47
24230;BME280;12362;50.004;8.006;2022-09-12T10:58:39;100455.34;;;29.77;77.06
24230;BME280;12362;50.004;8.006;2022-09-12T11:01:36;100452.25;;;30.14;68.47
24230;BME280;12362;50.004;8.006;2022-09-12T11:17:58;100453.13;;;28.76;72.78
24230;BME280;12362;50.004;8.006;2022-09-12T11:20:52;100445.22;;;29.79;73.42
24230;BME280;12362;50.004;8.006;2022-09-12T11:23:47;100442.25;;;30.29;63.09
24230;BME280;12362;50.004;8.006;2022-09-12T11:38:16;100439.88;;;29.31;64.31
24230;BME280;12362;50.004;8.006;2022-09-12T11:40:58;100449.47;;;28.98;63.41
24230;BME280;12362;50.004;8.006;2022-09-12T11:43:42;100430.38;;;29.77;59.19
24230;BME280;12362;50.004;8.006;2022-09-12T11:46:21;100428.53;;;29.77;56.38
24230;BME280;12362;50.004;8.006;2022-09-12T11:57:38;100422.25;;;29.16;59.33
24230;BME280;12362;50.004;8.006;2022-09-12T12:00:19;100417.34;;;28.77;56.53
24230;BME280;12362;50.004;8.006;2022-09-12T12:05:50;100404.16;;;29.66;55.78
24230;BME280;12362;50.004;8.006;2022-09-12T12:08:24;100410.66;;;28.88;56.35
24230;BME280;12362;50.004;8.006;2022-09-12T12:10:58;100403.88;;;29.88;54.74
24230;BME280;12362;50.004;8.006;2022-09-12T12:13:37;100400.13;;;30.63;51.72
24230;BME280;12362;50.004;8.006;2022-09-12T12:16:24;100404.31;;;29.92;49.30
24230;BME280;12362;50.004;8.006;2022-09-12T12:18:56;100400.66;;;30.46;49.58
24230;BME280;12362;50.004;8.006;2022-09-12T12:21:54;100394.94;;;30.62;46.71
24230;BME280;12362;50.004;8.006;2022-09-12T12:24:31;100389.47;;;30.30;52.35
24230;BME280;12362;50.004;8.006;2022-09-12T12:27:03;100386.41;;;30.39;48.64
24230;BME280;12362;50.004;8.006;2022-09-12T12:29:40;100392.72;;;29.03;63.10
24230;BME280;12362;50.004;8.006;2022-09-12T12:34:45;100372.34;;;30.24;65.88
24230;BME280;12362;50.004;8.006;2022-09-12T12:45:00;100375.19;;;30.16;55.98
24230;BME280;12362;50.004;8.006;2022-09-12T12:47:43;100362.56;;;30.04;52.89
24230;BME280;12362;50.004;8.006;2022-09-12T12:53:23;100359.94;;;29.43;52.32
24230;BME280;12362;50.004;8.006;2022-09-12T12:55:52;100355.25;;;29.30;64.55
24230;BME280;12362;50.004;8.006;2022-09-12T12:58:36;100360.06;;;28.72;54.98
24230;BME280;12362;50.004;8.006;2022-09-12T13:03:58;100349.59;;;29.40;55.16
24230;BME280;12362;50.004;8.006;2022-09-12T13:06:37;100348.19;;;29.77;50.90
24230;BME280;12362;50.004;8.006;2022-09-12T13:09:08;100355.38;;;29.77;52.94
24230;BME280;12362;50.004;8.006;2022-09-12T13:11:47;100357.94;;;29.58;55.16
24230;BME280;12362;50.004;8.006;2022-09-12T13:14:47;100332.72;;;29.79;49.26
24230;BME280;12362;50.004;8.006;2022-09-12T13:17:22;100328.34;;;29.99;51.27
24230;BME280;12362;50.004;8.006;2022-09-12T13:20:05;100325.78;;;29.91;54.24
24230;BME280;12362;50.004;8.006;2022-09-12T13:22:50;100332.91;;;28.48;55.41
24230;BME280;12362;50.004;8.006;2022-09-12T13:30:29;100324.97;;;29.23;53.81
24230;BME280;12362;50.004;8.006;2022-09-12T13:33:08;100326.16;;;29.21;54.58
24230;BME280;12362;50.004;8.006;2022-09-12T13:36:31;100313.34;;;30.11;53.33
24230;BME280;12362;50.004;8.006;2022-09-12T13:41:15;100299.56;;;29.80;49.20
24230;BME280;12362;50.004;8.006;2022-09-12T13:43:48;100304.81;;;29.00;53.37
24230;BME280;12362;50.004;8.006;2022-09-12T13:46:20;100302.38;;;30.06;50.42
24230;BME280;12362;50.004;8.006;2022-09-12T13:48:52;100300.63;;;29.86;50.53
24230;BME280;12362;50.004;8.006;2022-09-12T13:51:24;100283.97;;;30.69;48.93
24230;BME280;12362;50.004;8.006;2022-09-12T13:53:56;100279.84;;;30.73;51.83
24230;BME280;12362;50.004;8.006;2022-09-12T13:56:23;100283.22;;;30.09;49.87
24230;BME280;12362;50.004;8.006;2022-09-12T13:58:57;100285.09;;;29.68;53.52
24230;BME280;12362;50.004;8.006;2022-09-12T14:01:37;100284.56;;;29.92;50.67
24230;BME280;12362;50.004;8.006;2022-09-12T14:04:25;100289.63;;;29.34;54.37
24230;BME280;12362;50.004;8.006;2022-09-12T14:07:17;100292.06;;;28.54;56.86
24230;BME280;12362;50.004;8.006;2022-09-12T14:09:52;100294.03;;;29.42;53.22
24230;BME280;12362;50.004;8.006;2022-09-12T14:12:30;100278.00;;;29.88;52.52
24230;BME280;12362;50.004;8.006;2022-09-12T14:14:57;100268.53;;;31.04;51.44
24230;BME280;12362;50.004;8.006;2022-09-12T14:17:28;100270.97;;;30.92;48.90
24230;BME280;12362;50.004;8.006;2022-09-12T14:19:58;100270.38;;;30.58;50.58
24230;BME280;12362;50.004;8.006;2022-09-12T14:22:26;100263.31;;;29.78;53.69
24230;BME280;12362;50.004;8.006;2022-09-12T14:24:57;100263.09;;;30.46;49.73
24230;BME280;12362;50.004;8.006;2022-09-12T14:27:42;100272.06;;;28.50;52.95
24230;BME280;12362;50.004;8.006;2022-09-12T14:35:47;100260.53;;;29.58;51.62
24230;BME280;12362;50.004;8.006;2022-09-12T14:38:23;100255.31;;;29.91;50.46
24230;BME280;12362;50.004;8.006;2022-09-12T14:41:05;100245.69;;;29.96;50.09
24230;BME280;12362;50.004;8.006;2022-09-12T14:43:35;100250.47;;;29.27;50.57
24230;BME280;12362;50.004;8.006;2022-09-12T14:46:06;100250.41;;;29.94;50.44
24230;BME280;12362;50.004;8.006;2022-09-12T14:48:47;100253.38;;;29.32;53.99
24230;BME280;12362;50.004;8.006;2022-09-12T14:51:25;100250.03;;;30.04;50.91
24230;BME280;12362;50.004;8.006;2022-09-12T14:53:55;100254.16;;;29.59;53.20
24230;BME280;12362;50.004;8.006;2022-09-12T14:56:21;100242.16;;;29.43;52.08
24230;BME280;12362;50.004;8.006;2022-09-12T15:02:25;100229.94;;;29.87;51.80
24230;BME280;12362;50.004;8.006;2022-09-12T15:07:57;100238.94;;;28.71;54.02
24230;BME280;12362;50.004;8.006;2022-09-12T15:10:30;100236.59;;;29.44;48.59
24230;BME280;12362;50.004;8.006;2022-09-12T15:15:36;100234.72;;;28.56;52.73
24230;BME280;12362;50.004;8.006;2022-09-12T15:18:05;100231.78;;;29.33;56.70
24230;BME280;12362;50.004;8.006;2022-09-12T15:20:32;100228.03;;;29.61;46.73
24230;BME280;12362;50.004;8.006;2022-09-12T15:23:00;100220.59;;;29.23;54.76
24230;BME280;12362;50.004;8.006;2022-09-12T15:25:27;100220.25;;;29.79;51.09
24230;BME280;12362;50.004;8.006;2022-09-12T15:27:55;100205.44;;;29.90;50.19